Eikamaru No.2 — JD3056 — position and weather

sailwx.info

Track history (hours):
 
Tides and Currents Weather Stations Pressure Air Temp Water Temp Dewpoint Dewpoint Depression Visibility Wind Speed Wind Dir Waves Ship Positions

Eikamaru No.2

Last reported at 2018-Apr-19 21:01 UTC. Time now 2018-Apr-19 21:08 UTC.
Position N 33°58' E 131°04'.

Length 60 m; draft 3.3 m.

Type: Tanker. MMSI: 431001342.

Date/timePositionNaut miles runAvg speedWind from/ knotsBaromVisibWave heightAir tempDewpointWater temp
2018-Apr-19 21:01N 33°58' E 131°04'0 0.0
2018-Apr-19 20:30N 33°58' E 131°04'0 0.0
2018-Apr-19 19:59N 33°58' E 131°04'0 0.0
2018-Apr-19 19:31N 33°58' E 131°04'0 0.0
2018-Apr-19 19:00N 33°58' E 131°04'0 0.1
2018-Apr-19 18:30N 33°58' E 131°04'0 0.1
2018-Apr-19 18:00N 33°58' E 131°04'0 0.1
2018-Apr-19 17:30N 33°58' E 131°04'0 0.0
2018-Apr-19 17:00N 33°58' E 131°04'0 0.0
2018-Apr-19 16:31N 33°58' E 131°04'0 0.0
2018-Apr-19 16:01N 33°58' E 131°04'0 0.0
2018-Apr-19 15:30N 33°58' E 131°04'0 0.0
2018-Apr-19 15:00N 33°58' E 131°04'4 8.6
2018-Apr-19 14:31N 33°55' E 131°08'612.5
2018-Apr-19 14:01N 33°52' E 131°14'612.8
2018-Apr-19 13:30N 33°50' E 131°22'612.6
2018-Apr-19 13:00N 33°50' E 131°29'712.7
2018-Apr-19 12:27N 33°49' E 131°38'613.0
2018-Apr-19 12:00N 33°48' E 131°45'612.7
2018-Apr-19 11:30N 33°47' E 131°52'712.3
2018-Apr-19 10:56N 33°46' E 132°01'1012.0
2018-Apr-19 10:08N 33°50' E 132°11'211.4
2018-Apr-19 09:59N 33°50' E 132°13'1511.3
2018-Apr-19 08:40N 33°56' E 132°30'212.8
2018-Apr-19 08:30N 33°57' E 132°32'713.1
2018-Apr-19 08:00N 34°01' E 132°38'7 0.3
2018-Apr-18 09:41N 34°05' E 132°45'211.1
2018-Apr-18 09:29N 34°04' E 132°43'510.9
2018-Apr-18 09:00N 34°01' E 132°37'610.3
2018-Apr-18 08:26N 33°57' E 132°32'5 9.9
2018-Apr-18 07:58N 33°54' E 132°28'10 9.8
2018-Apr-18 06:59N 33°50' E 132°17'510.3
2018-Apr-18 06:30N 33°49' E 132°11'5 9.7
2018-Apr-18 06:00N 33°47' E 132°06'510.2
2018-Apr-18 05:31N 33°45' E 132°01'610.9
2018-Apr-18 05:00N 33°45' E 131°54'611.9
2018-Apr-18 04:30N 33°46' E 131°47'612.4
2018-Apr-18 04:00N 33°48' E 131°40'612.3
2018-Apr-18 03:30N 33°49' E 131°33'611.9
2018-Apr-18 03:01N 33°50' E 131°26'611.7
2018-Apr-18 02:30N 33°51' E 131°19'510.9
2018-Apr-18 02:00N 33°54' E 131°13'3 5.5
2018-Apr-18 01:30N 33°57' E 131°12'0 0.0
2018-Apr-18 01:01N 33°57' E 131°12'0 0.0
2018-Apr-18 00:30N 33°57' E 131°12'0 0.0
2018-Apr-18 00:00N 33°57' E 131°12'0 0.0
2018-Apr-17 23:30N 33°57' E 131°12'0 0.0
2018-Apr-17 23:00N 33°57' E 131°12'0 0.0
2018-Apr-17 22:28N 33°57' E 131°12'1 1.4
2018-Apr-17 22:00N 33°56' E 131°12'2 3.5
2018-Apr-17 21:30N 33°55' E 131°10'0 0.6
2018-Apr-17 21:00N 33°54' E 131°10'2 4.7
2018-Apr-17 20:30N 33°53' E 131°13'612.3
2018-Apr-17 20:00N 33°51' E 131°20'612.3
2018-Apr-17 19:31N 33°50' E 131°27'612.0
2018-Apr-17 19:00N 33°49' E 131°34'611.9
2018-Apr-17 18:30N 33°48' E 131°41'611.7
2018-Apr-17 18:00N 33°47' E 131°48'1011.8
2018-Apr-17 17:07N 33°46' E 132°01'212.9
2018-Apr-17 17:00N 33°46' E 132°03'713.2
2018-Apr-17 16:26N 33°49' E 132°10'612.7
2018-Apr-17 16:00N 33°50' E 132°17'1112.3
2018-Apr-17 15:06N 33°55' E 132°29'112.8
2018-Apr-17 15:00N 33°56' E 132°30'612.0
2018-Apr-17 14:29N 34°00' E 132°36'611.5
2018-Apr-17 13:59N 34°03' E 132°42'7310.3
2018-Apr-17 06:58N 34°31' E 134°03'910.8
2018-Apr-17 06:06N 34°35' E 134°13'2 9.4
2018-Apr-17 05:51N 34°36' E 134°15'510.6
2018-Apr-17 05:25N 34°39' E 134°20'511.8
2018-Apr-17 05:01N 34°41' E 134°25'611.8
2018-Apr-17 04:30N 34°43' E 134°32'4 7.4
2018-Apr-17 04:01N 34°46' E 134°35'0 0.0
2018-Apr-17 03:30N 34°46' E 134°35'0 0.0
2018-Apr-17 03:00N 34°46' E 134°35'0 0.0
2018-Apr-17 02:29N 34°46' E 134°35'0 0.0
2018-Apr-17 02:00N 34°46' E 134°35'0 0.0
2018-Apr-17 01:30N 34°46' E 134°35'0 0.0
2018-Apr-17 01:00N 34°46' E 134°35'0 0.0
2018-Apr-17 00:30N 34°46' E 134°35'3 5.8
2018-Apr-16 23:59N 34°44' E 134°38'0 0.0
2018-Apr-16 23:30N 34°44' E 134°38'0 0.0
2018-Apr-16 23:00N 34°44' E 134°38'0 0.0
2018-Apr-16 22:30N 34°44' E 134°38'0 0.1
2018-Apr-16 22:00N 34°44' E 134°38'0 0.0
2018-Apr-16 21:30N 34°44' E 134°38'0 0.0
2018-Apr-16 21:00N 34°44' E 134°38'0 0.1
2018-Apr-16 20:29N 34°44' E 134°38'0 0.1
2018-Apr-16 20:00N 34°44' E 134°38'0 0.0
2018-Apr-16 19:25N 34°44' E 134°38'0 0.0
2018-Apr-16 18:57N 34°44' E 134°38'0 0.1
2018-Apr-16 18:09N 34°44' E 134°38'0 0.0
2018-Apr-16 18:00N 34°44' E 134°38'0 0.0
2018-Apr-16 17:30N 34°44' E 134°38'0 0.1
2018-Apr-16 17:00N 34°44' E 134°38'0 0.0
2018-Apr-16 16:30N 34°44' E 134°38'0 0.1
2018-Apr-16 16:01N 34°44' E 134°38'0 0.0
2018-Apr-16 15:12N 34°44' E 134°38'0 0.0
2018-Apr-16 14:54N 34°44' E 134°38'0 0.0
2018-Apr-16 14:29N 34°44' E 134°38'0 0.0
2018-Apr-16 13:50N 34°44' E 134°38'0 0.0
2018-Apr-16 13:26N 34°44' E 134°38'0 0.0
2018-Apr-16 13:00N 34°44' E 134°38'0 0.0
2018-Apr-16 12:30N 34°44' E 134°38'0 0.0
2018-Apr-16 12:00N 34°44' E 134°38'0 0.0
2018-Apr-16 11:23N 34°44' E 134°38'0 0.0
2018-Apr-16 10:36N 34°44' E 134°38'0 0.3
2018-Apr-16 10:24N 34°44' E 134°38'0 0.0
2018-Apr-16 09:58N 34°44' E 134°38'0 0.1
2018-Apr-16 09:03N 34°44' E 134°38'0 0.0
2018-Apr-16 08:55N 34°44' E 134°38'0 0.1
2018-Apr-16 08:30N 34°44' E 134°38'3 6.2
2018-Apr-16 07:58N 34°43' E 134°34'2712.1
2018-Apr-16 05:45N 34°32' E 134°04'  
2018-Apr-13 10:28N 34°22' E 134°26'511.1
2018-Apr-13 10:00N 34°18' E 134°30'611.4
2018-Apr-13 09:28N 34°16' E 134°37'1012.2
2018-Apr-13 08:38N 34°08' E 134°45'311.5
2018-Apr-13 08:24N 34°06' E 134°47'911.6
2018-Apr-13 07:36N 33°59' E 134°55'111.4
2018-Apr-13 07:30N 33°58' E 134°55'611.3
2018-Apr-13 07:00N 33°54' E 134°60'177 9.5
2018-Apr-12 12:22N 34°33' E 138°29'410.0
2018-Apr-12 11:57N 34°34' E 138°34'9 9.5
2018-Apr-12 11:02N 34°34' E 138°44'3 8.7
2018-Apr-12 10:44N 34°35' E 138°47'6 7.8
2018-Apr-12 09:57N 34°35' E 138°55'4 7.0
2018-Apr-12 09:20N 34°37' E 138°59'3 8.1
2018-Apr-12 08:55N 34°40' E 139°02'4 8.9
2018-Apr-12 08:30N 34°43' E 139°04'15 9.3
2018-Apr-12 06:55N 34°54' E 139°16'5 8.7
2018-Apr-12 06:21N 34°57' E 139°21'3 8.8
2018-Apr-12 06:00N 34°58' E 139°25'4 8.6
2018-Apr-12 05:30N 35°01' E 139°29'4 8.8
2018-Apr-12 05:00N 35°03' E 139°33'5 9.5
2018-Apr-12 04:30N 35°06' E 139°38'510.1
2018-Apr-12 04:00N 35°09' E 139°43'510.0
2018-Apr-12 03:30N 35°13' E 139°46'5 9.9
2018-Apr-12 03:00N 35°18' E 139°44'510.3
2018-Apr-12 02:30N 35°23' E 139°42'510.9
2018-Apr-12 02:00N 35°27' E 139°47'611.2
2018-Apr-12 01:30N 35°31' E 139°52'611.5
2018-Apr-12 00:59N 35°36' E 139°55'0 0.4
2018-Apr-12 00:30N 35°36' E 139°55'0 0.1
2018-Apr-12 00:00N 35°36' E 139°55'0 0.1
2018-Apr-11 23:30N 35°36' E 139°55'0 0.0
2018-Apr-11 23:00N 35°36' E 139°55'0 0.0
2018-Apr-11 22:30N 35°36' E 139°55'0 0.0
2018-Apr-11 22:01N 35°36' E 139°55'0 0.0
2018-Apr-11 21:30N 35°36' E 139°55'0 0.0
2018-Apr-11 20:58N 35°36' E 139°55'0 0.0
2018-Apr-11 20:30N 35°36' E 139°55'0 0.1
2018-Apr-11 20:00N 35°36' E 139°55'0 0.0
2018-Apr-11 19:30N 35°36' E 139°55'0 0.0
2018-Apr-11 19:00N 35°36' E 139°55'0 0.0
2018-Apr-11 18:30N 35°36' E 139°55'0 0.0
2018-Apr-11 18:00N 35°36' E 139°55'0 0.0
2018-Apr-11 17:29N 35°36' E 139°55'0 0.0
2018-Apr-11 17:00N 35°36' E 139°55'0 0.0
2018-Apr-11 16:30N 35°36' E 139°55'0 0.0
2018-Apr-11 16:00N 35°36' E 139°55'0 0.0
2018-Apr-11 15:28N 35°36' E 139°55'0 0.0
2018-Apr-11 15:00N 35°36' E 139°55'0 0.0
2018-Apr-11 14:29N 35°36' E 139°55'0 0.0
2018-Apr-11 13:59N 35°36' E 139°55'0 0.0
2018-Apr-11 13:29N 35°36' E 139°55'0 0.0
2018-Apr-11 12:59N 35°36' E 139°55'0 0.0
2018-Apr-11 12:30N 35°36' E 139°55'0 0.0
2018-Apr-11 12:00N 35°36' E 139°55'0 0.0
2018-Apr-11 11:30N 35°36' E 139°55'0 0.0
2018-Apr-11 11:00N 35°36' E 139°55'0 0.0
2018-Apr-11 10:30N 35°36' E 139°55'0 0.0
2018-Apr-11 10:00N 35°36' E 139°55'0 0.0
2018-Apr-11 09:30N 35°36' E 139°55'0 0.0
2018-Apr-11 09:00N 35°36' E 139°55'0 0.0
2018-Apr-11 08:28N 35°36' E 139°55'0 0.0
2018-Apr-11 08:00N 35°36' E 139°55'3 6.6
2018-Apr-11 07:29N 35°35' E 139°59'510.0
2018-Apr-11 07:00N 35°33' E 140°04'1 2.1
2018-Apr-11 06:29N 35°32' E 140°05'0 0.0
2018-Apr-11 06:00N 35°32' E 140°05'0 0.0
2018-Apr-11 05:30N 35°32' E 140°05'0 0.1
2018-Apr-11 05:00N 35°32' E 140°05'0 0.1
2018-Apr-11 04:30N 35°32' E 140°05'0 0.0
2018-Apr-11 04:00N 35°32' E 140°05'0 0.0
2018-Apr-11 03:30N 35°32' E 140°05'0 0.0
2018-Apr-11 03:00N 35°32' E 140°05'0 0.1
2018-Apr-11 02:30N 35°32' E 140°05'0 0.0
2018-Apr-11 02:00N 35°32' E 140°05'0 0.1
2018-Apr-11 01:30N 35°32' E 140°05'0 0.0
2018-Apr-11 01:00N 35°32' E 140°05'2 3.9
2018-Apr-11 00:30N 35°34' E 140°03'612.1
2018-Apr-11 00:00N 35°30' E 139°57'612.3
2018-Apr-10 23:30N 35°27' E 139°50'611.9
2018-Apr-10 23:00N 35°23' E 139°46'510.9
2018-Apr-10 22:30N 35°17' E 139°45'611.2
2018-Apr-10 22:00N 35°12' E 139°47'612.1
2018-Apr-10 21:30N 35°06' E 139°44'612.3
2018-Apr-10 21:00N 35°02' E 139°39'713.0
2018-Apr-10 20:30N 34°58' E 139°32'814.1
2018-Apr-10 19:56N 34°53' E 139°24'613.9
2018-Apr-10 19:30N 34°50' E 139°19'713.4
2018-Apr-10 18:59N 34°45' E 139°12'613.4
2018-Apr-10 18:30N 34°41' E 139°06'612.4
2018-Apr-10 17:59N 34°37' E 138°60'712.4
2018-Apr-10 17:27N 34°34' E 138°53'612.6
2018-Apr-10 17:00N 34°34' E 138°46'612.5
2018-Apr-10 16:29N 34°33' E 138°38'612.4
2018-Apr-10 16:00N 34°33' E 138°31'612.3
2018-Apr-10 15:30N 34°33' E 138°23'611.8
2018-Apr-10 15:00N 34°33' E 138°16'812.1
2018-Apr-10 14:21N 34°33' E 138°07'3612.4
2018-Apr-10 11:27N 34°33' E 137°23'612.6
2018-Apr-10 11:00N 34°32' E 137°16'1611.7
2018-Apr-10 09:38N 34°36' E 136°57'212.4
2018-Apr-10 09:26N 34°37' E 136°55'512.1
2018-Apr-10 09:00N 34°40' E 136°49'611.8
2018-Apr-10 08:30N 34°46' E 136°46'611.8
2018-Apr-10 08:00N 34°51' E 136°43'611.8
2018-Apr-10 07:30N 34°57' E 136°41'2 4.3
2018-Apr-10 07:00N 34°57' E 136°38'0 0.0
2018-Apr-10 06:30N 34°57' E 136°38'0 0.0
2018-Apr-10 06:00N 34°57' E 136°38'0 0.0
2018-Apr-10 05:30N 34°57' E 136°38'0 0.0
2018-Apr-10 05:00N 34°57' E 136°38'0 0.0
2018-Apr-10 04:30N 34°57' E 136°38'1 2.2
2018-Apr-10 04:00N 34°57' E 136°39'4 8.2
2018-Apr-10 03:31N 34°54' E 136°42'611.1
2018-Apr-10 02:59N 34°49' E 136°45'511.2
2018-Apr-10 02:30N 34°45' E 136°49'  
Track history (hours):
 
Tides and Currents Weather Stations Pressure Air Temp Water Temp Dewpoint Dewpoint Depression Visibility Wind Speed Wind Dir Waves Ship Positions

Eikamaru No.2

Last reported at 2018-Apr-19 21:01 UTC. Time now 2018-Apr-19 21:08 UTC.
Position N 33°58' E 131°04'.

Length 60 m; draft 3.3 m.

Type: Tanker. MMSI: 431001342.

Date/timePositionNaut miles runAvg speedWind from/ knotsBaromVisibWave heightAir tempDewpointWater temp
2018-Apr-19 21:01N 33°58' E 131°04'0 0.0
2018-Apr-19 20:30N 33°58' E 131°04'0 0.0
2018-Apr-19 19:59N 33°58' E 131°04'0 0.0
2018-Apr-19 19:31N 33°58' E 131°04'0 0.0
2018-Apr-19 19:00N 33°58' E 131°04'0 0.1
2018-Apr-19 18:30N 33°58' E 131°04'0 0.1
2018-Apr-19 18:00N 33°58' E 131°04'0 0.1
2018-Apr-19 17:30N 33°58' E 131°04'0 0.0
2018-Apr-19 17:00N 33°58' E 131°04'0 0.0
2018-Apr-19 16:31N 33°58' E 131°04'0 0.0
2018-Apr-19 16:01N 33°58' E 131°04'0 0.0
2018-Apr-19 15:30N 33°58' E 131°04'0 0.0
2018-Apr-19 15:00N 33°58' E 131°04'4 8.6
2018-Apr-19 14:31N 33°55' E 131°08'612.5
2018-Apr-19 14:01N 33°52' E 131°14'612.8
2018-Apr-19 13:30N 33°50' E 131°22'612.6
2018-Apr-19 13:00N 33°50' E 131°29'712.7
2018-Apr-19 12:27N 33°49' E 131°38'613.0
2018-Apr-19 12:00N 33°48' E 131°45'612.7
2018-Apr-19 11:30N 33°47' E 131°52'712.3
2018-Apr-19 10:56N 33°46' E 132°01'1012.0
2018-Apr-19 10:08N 33°50' E 132°11'211.4
2018-Apr-19 09:59N 33°50' E 132°13'1511.3
2018-Apr-19 08:40N 33°56' E 132°30'212.8
2018-Apr-19 08:30N 33°57' E 132°32'713.1
2018-Apr-19 08:00N 34°01' E 132°38'7 0.3
2018-Apr-18 09:41N 34°05' E 132°45'211.1
2018-Apr-18 09:29N 34°04' E 132°43'510.9
2018-Apr-18 09:00N 34°01' E 132°37'610.3
2018-Apr-18 08:26N 33°57' E 132°32'5 9.9
2018-Apr-18 07:58N 33°54' E 132°28'10 9.8
2018-Apr-18 06:59N 33°50' E 132°17'510.3
2018-Apr-18 06:30N 33°49' E 132°11'5 9.7
2018-Apr-18 06:00N 33°47' E 132°06'510.2
2018-Apr-18 05:31N 33°45' E 132°01'610.9
2018-Apr-18 05:00N 33°45' E 131°54'611.9
2018-Apr-18 04:30N 33°46' E 131°47'612.4
2018-Apr-18 04:00N 33°48' E 131°40'612.3
2018-Apr-18 03:30N 33°49' E 131°33'611.9
2018-Apr-18 03:01N 33°50' E 131°26'611.7
2018-Apr-18 02:30N 33°51' E 131°19'510.9
2018-Apr-18 02:00N 33°54' E 131°13'3 5.5
2018-Apr-18 01:30N 33°57' E 131°12'0 0.0
2018-Apr-18 01:01N 33°57' E 131°12'0 0.0
2018-Apr-18 00:30N 33°57' E 131°12'0 0.0
2018-Apr-18 00:00N 33°57' E 131°12'0 0.0
2018-Apr-17 23:30N 33°57' E 131°12'0 0.0
2018-Apr-17 23:00N 33°57' E 131°12'0 0.0
2018-Apr-17 22:28N 33°57' E 131°12'1 1.4
2018-Apr-17 22:00N 33°56' E 131°12'2 3.5
2018-Apr-17 21:30N 33°55' E 131°10'0 0.6
2018-Apr-17 21:00N 33°54' E 131°10'2 4.7
2018-Apr-17 20:30N 33°53' E 131°13'612.3
2018-Apr-17 20:00N 33°51' E 131°20'612.3
2018-Apr-17 19:31N 33°50' E 131°27'612.0
2018-Apr-17 19:00N 33°49' E 131°34'611.9
2018-Apr-17 18:30N 33°48' E 131°41'611.7
2018-Apr-17 18:00N 33°47' E 131°48'1011.8
2018-Apr-17 17:07N 33°46' E 132°01'212.9
2018-Apr-17 17:00N 33°46' E 132°03'713.2
2018-Apr-17 16:26N 33°49' E 132°10'612.7
2018-Apr-17 16:00N 33°50' E 132°17'1112.3
2018-Apr-17 15:06N 33°55' E 132°29'112.8
2018-Apr-17 15:00N 33°56' E 132°30'612.0
2018-Apr-17 14:29N 34°00' E 132°36'611.5
2018-Apr-17 13:59N 34°03' E 132°42'7310.3
2018-Apr-17 06:58N 34°31' E 134°03'910.8
2018-Apr-17 06:06N 34°35' E 134°13'2 9.4
2018-Apr-17 05:51N 34°36' E 134°15'510.6
2018-Apr-17 05:25N 34°39' E 134°20'511.8
2018-Apr-17 05:01N 34°41' E 134°25'611.8
2018-Apr-17 04:30N 34°43' E 134°32'4 7.4
2018-Apr-17 04:01N 34°46' E 134°35'0 0.0
2018-Apr-17 03:30N 34°46' E 134°35'0 0.0
2018-Apr-17 03:00N 34°46' E 134°35'0 0.0
2018-Apr-17 02:29N 34°46' E 134°35'0 0.0
2018-Apr-17 02:00N 34°46' E 134°35'0 0.0
2018-Apr-17 01:30N 34°46' E 134°35'0 0.0
2018-Apr-17 01:00N 34°46' E 134°35'0 0.0
2018-Apr-17 00:30N 34°46' E 134°35'3 5.8
2018-Apr-16 23:59N 34°44' E 134°38'0 0.0
2018-Apr-16 23:30N 34°44' E 134°38'0 0.0
2018-Apr-16 23:00N 34°44' E 134°38'0 0.0
2018-Apr-16 22:30N 34°44' E 134°38'0 0.1
2018-Apr-16 22:00N 34°44' E 134°38'0 0.0
2018-Apr-16 21:30N 34°44' E 134°38'0 0.0
2018-Apr-16 21:00N 34°44' E 134°38'0 0.1
2018-Apr-16 20:29N 34°44' E 134°38'0 0.1
2018-Apr-16 20:00N 34°44' E 134°38'0 0.0
2018-Apr-16 19:25N 34°44' E 134°38'0 0.0
2018-Apr-16 18:57N 34°44' E 134°38'0 0.1
2018-Apr-16 18:09N 34°44' E 134°38'0 0.0
2018-Apr-16 18:00N 34°44' E 134°38'0 0.0
2018-Apr-16 17:30N 34°44' E 134°38'0 0.1
2018-Apr-16 17:00N 34°44' E 134°38'0 0.0
2018-Apr-16 16:30N 34°44' E 134°38'0 0.1
2018-Apr-16 16:01N 34°44' E 134°38'0 0.0
2018-Apr-16 15:12N 34°44' E 134°38'0 0.0
2018-Apr-16 14:54N 34°44' E 134°38'0 0.0
2018-Apr-16 14:29N 34°44' E 134°38'0 0.0
2018-Apr-16 13:50N 34°44' E 134°38'0 0.0
2018-Apr-16 13:26N 34°44' E 134°38'0 0.0
2018-Apr-16 13:00N 34°44' E 134°38'0 0.0
2018-Apr-16 12:30N 34°44' E 134°38'0 0.0
2018-Apr-16 12:00N 34°44' E 134°38'0 0.0
2018-Apr-16 11:23N 34°44' E 134°38'0 0.0
2018-Apr-16 10:36N 34°44' E 134°38'0 0.3
2018-Apr-16 10:24N 34°44' E 134°38'0 0.0
2018-Apr-16 09:58N 34°44' E 134°38'0 0.1
2018-Apr-16 09:03N 34°44' E 134°38'0 0.0
2018-Apr-16 08:55N 34°44' E 134°38'0 0.1
2018-Apr-16 08:30N 34°44' E 134°38'3 6.2
2018-Apr-16 07:58N 34°43' E 134°34'2712.1
2018-Apr-16 05:45N 34°32' E 134°04'  
2018-Apr-13 10:28N 34°22' E 134°26'511.1
2018-Apr-13 10:00N 34°18' E 134°30'611.4
2018-Apr-13 09:28N 34°16' E 134°37'1012.2
2018-Apr-13 08:38N 34°08' E 134°45'311.5
2018-Apr-13 08:24N 34°06' E 134°47'911.6
2018-Apr-13 07:36N 33°59' E 134°55'111.4
2018-Apr-13 07:30N 33°58' E 134°55'611.3
2018-Apr-13 07:00N 33°54' E 134°60'177 9.5
2018-Apr-12 12:22N 34°33' E 138°29'410.0
2018-Apr-12 11:57N 34°34' E 138°34'9 9.5
2018-Apr-12 11:02N 34°34' E 138°44'3 8.7
2018-Apr-12 10:44N 34°35' E 138°47'6 7.8
2018-Apr-12 09:57N 34°35' E 138°55'4 7.0
2018-Apr-12 09:20N 34°37' E 138°59'3 8.1
2018-Apr-12 08:55N 34°40' E 139°02'4 8.9
2018-Apr-12 08:30N 34°43' E 139°04'15 9.3
2018-Apr-12 06:55N 34°54' E 139°16'5 8.7
2018-Apr-12 06:21N 34°57' E 139°21'3 8.8
2018-Apr-12 06:00N 34°58' E 139°25'4 8.6
2018-Apr-12 05:30N 35°01' E 139°29'4 8.8
2018-Apr-12 05:00N 35°03' E 139°33'5 9.5
2018-Apr-12 04:30N 35°06' E 139°38'510.1
2018-Apr-12 04:00N 35°09' E 139°43'510.0
2018-Apr-12 03:30N 35°13' E 139°46'5 9.9
2018-Apr-12 03:00N 35°18' E 139°44'510.3
2018-Apr-12 02:30N 35°23' E 139°42'510.9
2018-Apr-12 02:00N 35°27' E 139°47'611.2
2018-Apr-12 01:30N 35°31' E 139°52'611.5
2018-Apr-12 00:59N 35°36' E 139°55'0 0.4
2018-Apr-12 00:30N 35°36' E 139°55'0 0.1
2018-Apr-12 00:00N 35°36' E 139°55'0 0.1
2018-Apr-11 23:30N 35°36' E 139°55'0 0.0
2018-Apr-11 23:00N 35°36' E 139°55'0 0.0
2018-Apr-11 22:30N 35°36' E 139°55'0 0.0
2018-Apr-11 22:01N 35°36' E 139°55'0 0.0
2018-Apr-11 21:30N 35°36' E 139°55'0 0.0
2018-Apr-11 20:58N 35°36' E 139°55'0 0.0
2018-Apr-11 20:30N 35°36' E 139°55'0 0.1
2018-Apr-11 20:00N 35°36' E 139°55'0 0.0
2018-Apr-11 19:30N 35°36' E 139°55'0 0.0
2018-Apr-11 19:00N 35°36' E 139°55'0 0.0
2018-Apr-11 18:30N 35°36' E 139°55'0 0.0
2018-Apr-11 18:00N 35°36' E 139°55'0 0.0
2018-Apr-11 17:29N 35°36' E 139°55'0 0.0
2018-Apr-11 17:00N 35°36' E 139°55'0 0.0
2018-Apr-11 16:30N 35°36' E 139°55'0 0.0
2018-Apr-11 16:00N 35°36' E 139°55'0 0.0
2018-Apr-11 15:28N 35°36' E 139°55'0 0.0
2018-Apr-11 15:00N 35°36' E 139°55'0 0.0
2018-Apr-11 14:29N 35°36' E 139°55'0 0.0
2018-Apr-11 13:59N 35°36' E 139°55'0 0.0
2018-Apr-11 13:29N 35°36' E 139°55'0 0.0
2018-Apr-11 12:59N 35°36' E 139°55'0 0.0
2018-Apr-11 12:30N 35°36' E 139°55'0 0.0
2018-Apr-11 12:00N 35°36' E 139°55'0 0.0
2018-Apr-11 11:30N 35°36' E 139°55'0 0.0
2018-Apr-11 11:00N 35°36' E 139°55'0 0.0
2018-Apr-11 10:30N 35°36' E 139°55'0 0.0
2018-Apr-11 10:00N 35°36' E 139°55'0 0.0
2018-Apr-11 09:30N 35°36' E 139°55'0 0.0
2018-Apr-11 09:00N 35°36' E 139°55'0 0.0
2018-Apr-11 08:28N 35°36' E 139°55'0 0.0
2018-Apr-11 08:00N 35°36' E 139°55'3 6.6
2018-Apr-11 07:29N 35°35' E 139°59'510.0
2018-Apr-11 07:00N 35°33' E 140°04'1 2.1
2018-Apr-11 06:29N 35°32' E 140°05'0 0.0
2018-Apr-11 06:00N 35°32' E 140°05'0 0.0
2018-Apr-11 05:30N 35°32' E 140°05'0 0.1
2018-Apr-11 05:00N 35°32' E 140°05'0 0.1
2018-Apr-11 04:30N 35°32' E 140°05'0 0.0
2018-Apr-11 04:00N 35°32' E 140°05'0 0.0
2018-Apr-11 03:30N 35°32' E 140°05'0 0.0
2018-Apr-11 03:00N 35°32' E 140°05'0 0.1
2018-Apr-11 02:30N 35°32' E 140°05'0 0.0
2018-Apr-11 02:00N 35°32' E 140°05'0 0.1
2018-Apr-11 01:30N 35°32' E 140°05'0 0.0
2018-Apr-11 01:00N 35°32' E 140°05'2 3.9
2018-Apr-11 00:30N 35°34' E 140°03'612.1
2018-Apr-11 00:00N 35°30' E 139°57'612.3
2018-Apr-10 23:30N 35°27' E 139°50'611.9
2018-Apr-10 23:00N 35°23' E 139°46'510.9
2018-Apr-10 22:30N 35°17' E 139°45'611.2
2018-Apr-10 22:00N 35°12' E 139°47'612.1
2018-Apr-10 21:30N 35°06' E 139°44'612.3
2018-Apr-10 21:00N 35°02' E 139°39'713.0
2018-Apr-10 20:30N 34°58' E 139°32'814.1
2018-Apr-10 19:56N 34°53' E 139°24'613.9
2018-Apr-10 19:30N 34°50' E 139°19'713.4
2018-Apr-10 18:59N 34°45' E 139°12'613.4
2018-Apr-10 18:30N 34°41' E 139°06'612.4
2018-Apr-10 17:59N 34°37' E 138°60'712.4
2018-Apr-10 17:27N 34°34' E 138°53'612.6
2018-Apr-10 17:00N 34°34' E 138°46'612.5
2018-Apr-10 16:29N 34°33' E 138°38'612.4
2018-Apr-10 16:00N 34°33' E 138°31'612.3
2018-Apr-10 15:30N 34°33' E 138°23'611.8
2018-Apr-10 15:00N 34°33' E 138°16'812.1
2018-Apr-10 14:21N 34°33' E 138°07'3612.4
2018-Apr-10 11:27N 34°33' E 137°23'612.6
2018-Apr-10 11:00N 34°32' E 137°16'1611.7
2018-Apr-10 09:38N 34°36' E 136°57'212.4
2018-Apr-10 09:26N 34°37' E 136°55'512.1
2018-Apr-10 09:00N 34°40' E 136°49'611.8
2018-Apr-10 08:30N 34°46' E 136°46'611.8
2018-Apr-10 08:00N 34°51' E 136°43'611.8
2018-Apr-10 07:30N 34°57' E 136°41'2 4.3
2018-Apr-10 07:00N 34°57' E 136°38'0 0.0
2018-Apr-10 06:30N 34°57' E 136°38'0 0.0
2018-Apr-10 06:00N 34°57' E 136°38'0 0.0
2018-Apr-10 05:30N 34°57' E 136°38'0 0.0
2018-Apr-10 05:00N 34°57' E 136°38'0 0.0
2018-Apr-10 04:30N 34°57' E 136°38'1 2.2
2018-Apr-10 04:00N 34°57' E 136°39'4 8.2
2018-Apr-10 03:31N 34°54' E 136°42'611.1
2018-Apr-10 02:59N 34°49' E 136°45'511.2
2018-Apr-10 02:30N 34°45' E 136°49'  

Dump ship's entire track history